createdAt,value
2019-01-29T00:00:36.117Z,2.85
2019-01-29T00:03:07.336Z,2.73
2019-01-29T00:05:36.987Z,2.70
2019-01-29T00:08:07.052Z,2.75
2019-01-29T00:10:36.616Z,2.80
2019-01-29T00:13:06.234Z,2.66
2019-01-29T00:15:35.776Z,2.75
2019-01-29T00:18:06.359Z,2.69
2019-01-29T00:20:35.952Z,2.69
2019-01-29T00:23:05.834Z,2.73
2019-01-29T00:25:35.376Z,2.68
2019-01-29T00:28:05.010Z,2.67
2019-01-29T00:30:34.625Z,2.67
2019-01-29T00:33:04.214Z,2.68
2019-01-29T00:35:33.710Z,2.83
2019-01-29T00:38:03.297Z,2.78
2019-01-29T00:40:32.870Z,2.80
2019-01-29T00:43:02.375Z,2.73
2019-01-29T00:45:31.976Z,2.73
2019-01-29T00:48:01.478Z,2.70
2019-01-29T00:50:31.010Z,2.82
2019-01-29T00:53:00.526Z,2.70
2019-01-29T00:55:30.414Z,2.66
2019-01-29T00:57:59.966Z,2.70
2019-01-29T01:00:29.514Z,2.73
2019-01-29T01:02:59.373Z,2.58
2019-01-29T01:05:29.612Z,2.66
2019-01-29T01:08:00.054Z,2.77
2019-01-29T01:10:29.742Z,2.72
2019-01-29T01:12:59.258Z,2.64
2019-01-29T01:15:29.015Z,2.72
2019-01-29T01:17:58.508Z,2.73
2019-01-29T01:20:28.076Z,2.73
2019-01-29T01:22:57.698Z,2.66
2019-01-29T01:25:27.214Z,2.76
2019-01-29T01:27:56.780Z,2.84
2019-01-29T01:30:26.646Z,3.05
2019-01-29T01:35:47.650Z,2.90
2019-01-29T01:38:17.488Z,2.80
2019-01-29T01:40:47.472Z,2.89
2019-01-29T01:43:17.014Z,2.81
2019-01-29T01:45:46.518Z,2.81
2019-01-29T01:48:16.092Z,2.83
2019-01-29T01:50:46.046Z,2.71
2019-01-29T01:53:15.548Z,2.72
2019-01-29T01:55:45.043Z,2.78
2019-01-29T01:58:14.626Z,2.83
2019-01-29T02:00:44.190Z,2.97
2019-01-29T02:03:13.702Z,2.79
2019-01-29T02:05:43.271Z,2.82
2019-01-29T02:08:12.811Z,3.05
2019-01-29T02:10:42.392Z,2.95
2019-01-29T02:13:12.070Z,3.06
2019-01-29T02:15:41.565Z,3.09
2019-01-29T02:18:11.517Z,3.00
2019-01-29T02:20:41.121Z,2.92
2019-01-29T02:23:10.617Z,2.90
2019-01-29T02:25:40.109Z,3.01
2019-01-29T02:28:09.704Z,2.87
2019-01-29T02:30:39.278Z,2.80
2019-01-29T02:33:08.752Z,2.95
2019-01-29T02:35:40.222Z,2.94
2019-01-29T02:38:10.134Z,3.02
2019-01-29T02:40:43.158Z,3.04
2019-01-29T02:43:14.475Z,2.98
2019-01-29T02:45:49.174Z,3.05
2019-01-29T02:48:18.743Z,2.87
2019-01-29T02:50:48.899Z,2.75
2019-01-29T02:53:18.699Z,2.88
2019-01-29T02:55:48.530Z,2.82
2019-01-29T02:58:18.099Z,2.67
2019-01-29T03:00:47.607Z,2.54
2019-01-29T03:03:19.917Z,2.60
2019-01-29T03:05:51.335Z,2.55
2019-01-29T03:08:20.924Z,2.69
2019-01-29T03:10:50.479Z,2.71
2019-01-29T03:13:20.085Z,2.52
2019-01-29T03:15:49.850Z,2.70
2019-01-29T03:18:19.816Z,2.73
2019-01-29T03:20:49.512Z,2.69
2019-01-29T03:23:27.327Z,2.81
2019-01-29T03:25:50.401Z,2.88
2019-01-29T03:28:21.560Z,2.86
2019-01-29T03:30:51.078Z,2.56
2019-01-29T03:33:20.862Z,2.65
2019-01-29T03:35:50.485Z,2.80
2019-01-29T03:38:20.114Z,2.80
2019-01-29T03:40:50.173Z,2.80
2019-01-29T03:43:19.899Z,2.77
2019-01-29T03:45:49.428Z,2.70
2019-01-29T03:48:20.182Z,2.74
2019-01-29T03:50:50.250Z,2.55
2019-01-29T03:53:19.797Z,2.62
2019-01-29T03:55:49.619Z,2.68
2019-01-29T03:58:19.262Z,2.63
2019-01-29T04:00:48.824Z,2.74
2019-01-29T04:03:18.320Z,2.80
2019-01-29T04:05:47.991Z,2.81
2019-01-29T04:08:17.581Z,2.93
2019-01-29T04:10:47.322Z,2.96
2019-01-29T04:13:17.962Z,2.95
2019-01-29T04:15:47.635Z,3.02
2019-01-29T04:18:17.877Z,3.04
2019-01-29T04:20:47.635Z,3.14
2019-01-29T04:23:17.195Z,3.16
2019-01-29T04:25:48.549Z,3.40
2019-01-29T04:28:19.286Z,3.36
2019-01-29T04:30:48.959Z,3.36
2019-01-29T04:33:18.569Z,3.42
2019-01-29T04:35:48.273Z,3.27
2019-01-29T04:38:17.943Z,3.40
2019-01-29T04:40:47.503Z,3.53
2019-01-29T04:43:17.177Z,3.58
2019-01-29T04:45:46.805Z,3.58
2019-01-29T04:48:16.501Z,3.73
2019-01-29T04:50:46.523Z,3.65
2019-01-29T04:53:16.298Z,3.89
2019-01-29T04:55:46.054Z,3.87
2019-01-29T04:58:15.705Z,3.73
2019-01-29T05:00:45.402Z,3.86
2019-01-29T05:03:15.011Z,3.92
2019-01-29T05:05:44.689Z,3.79
2019-01-29T05:08:14.478Z,3.65
2019-01-29T05:10:44.161Z,3.64
2019-01-29T05:13:15.944Z,3.67
2019-01-29T05:15:45.575Z,3.69
2019-01-29T05:18:15.219Z,3.72
2019-01-29T05:20:44.885Z,3.74
2019-01-29T05:23:14.377Z,3.33
2019-01-29T05:25:43.857Z,3.38
2019-01-29T05:28:13.407Z,3.35
2019-01-29T05:30:42.889Z,3.45
2019-01-29T05:33:12.383Z,3.51
2019-01-29T05:35:41.977Z,3.56
2019-01-29T05:38:11.549Z,3.48
2019-01-29T05:40:41.106Z,3.60
2019-01-29T05:43:10.713Z,3.67
2019-01-29T05:45:40.305Z,3.78
2019-01-29T05:48:10.105Z,3.46
2019-01-29T05:50:39.645Z,3.55
2019-01-29T05:53:09.238Z,3.71
2019-01-29T05:55:38.735Z,3.51
2019-01-29T05:58:08.549Z,3.80
2019-01-29T06:00:39.813Z,3.85
2019-01-29T06:03:09.355Z,3.97
2019-01-29T06:05:39.021Z,4.04
2019-01-29T06:08:08.619Z,3.96
2019-01-29T06:10:38.181Z,4.05
2019-01-29T06:13:07.707Z,3.87
2019-01-29T06:15:37.275Z,3.91
2019-01-29T06:18:06.856Z,4.00
2019-01-29T06:20:36.524Z,4.11
2019-01-29T06:23:06.146Z,4.17
2019-01-29T06:25:35.720Z,4.08
2019-01-29T06:28:05.461Z,4.16
2019-01-29T06:30:34.949Z,4.08
2019-01-29T06:33:04.484Z,4.06
2019-01-29T06:35:34.073Z,4.20
2019-01-29T06:38:03.581Z,3.96
2019-01-29T06:40:33.142Z,3.96
2019-01-29T06:43:02.729Z,3.85
2019-01-29T06:45:32.280Z,3.67
2019-01-29T06:48:01.872Z,3.86
2019-01-29T06:50:31.529Z,3.90
2019-01-29T06:53:01.101Z,3.69
2019-01-29T06:55:30.603Z,3.46
2019-01-29T06:58:00.284Z,3.59
2019-01-29T07:00:33.815Z,3.41
2019-01-29T07:03:03.790Z,3.42
2019-01-29T07:05:33.503Z,3.45
2019-01-29T07:08:02.972Z,3.24
2019-01-29T07:10:32.625Z,3.42
2019-01-29T07:13:02.288Z,3.24
2019-01-29T07:15:49.075Z,3.36
2019-01-29T07:18:23.073Z,3.52
2019-01-29T07:20:52.660Z,3.49
2019-01-29T07:23:22.151Z,3.34
2019-01-29T07:25:51.942Z,3.48
2019-01-29T07:28:21.514Z,3.53
2019-01-29T07:30:51.181Z,3.63
2019-01-29T07:33:20.920Z,3.76
2019-01-29T07:35:50.610Z,3.83
2019-01-29T07:38:20.181Z,3.72
2019-01-29T07:40:49.698Z,3.78
2019-01-29T07:43:19.188Z,3.82
2019-01-29T07:45:49.104Z,3.82
2019-01-29T07:48:19.112Z,3.83
2019-01-29T07:50:48.878Z,3.93
2019-01-29T07:53:18.467Z,4.10
2019-01-29T07:55:48.428Z,4.39
2019-01-29T07:58:17.930Z,4.92
2019-01-29T08:00:47.512Z,5.31
2019-01-29T08:03:17.104Z,5.23
2019-01-29T08:05:46.618Z,5.35
2019-01-29T08:08:16.266Z,5.31
2019-01-29T08:10:46.144Z,4.87
2019-01-29T08:13:15.852Z,4.58
2019-01-29T08:15:45.426Z,4.52
2019-01-29T08:18:14.964Z,4.47
2019-01-29T08:20:44.465Z,4.69
2019-01-29T08:23:14.035Z,4.86
2019-01-29T08:25:47.828Z,4.61
2019-01-29T08:28:14.795Z,4.49
2019-01-29T08:30:44.328Z,4.42
2019-01-29T08:33:14.595Z,4.47
2019-01-29T08:35:44.313Z,4.42
2019-01-29T08:38:13.964Z,4.61
2019-01-29T08:40:43.572Z,4.88
2019-01-29T08:43:13.074Z,4.63
2019-01-29T08:45:42.626Z,4.62
2019-01-29T08:48:12.242Z,4.88
2019-01-29T08:50:41.980Z,4.69
2019-01-29T08:53:11.862Z,4.94
2019-01-29T08:55:41.938Z,4.88
2019-01-29T08:58:11.611Z,4.96
2019-01-29T09:00:41.698Z,5.11
2019-01-29T09:03:11.311Z,4.81
2019-01-29T09:05:40.958Z,5.03
2019-01-29T09:08:10.529Z,4.97
2019-01-29T09:10:40.144Z,5.24
2019-01-29T09:13:09.720Z,5.64
2019-01-29T09:15:39.324Z,5.40
2019-01-29T09:18:09.306Z,5.75
2019-01-29T09:20:38.855Z,6.40
2019-01-29T09:23:08.434Z,6.78
2019-01-29T09:25:38.424Z,7.04
2019-01-29T09:28:07.993Z,6.11
2019-01-29T09:30:37.590Z,5.96
2019-01-29T09:33:07.261Z,5.61
2019-01-29T09:35:36.853Z,5.33
2019-01-29T09:38:06.520Z,4.74
2019-01-29T09:40:36.188Z,4.98
2019-01-29T09:43:05.850Z,5.03
2019-01-29T09:45:35.486Z,5.53
2019-01-29T09:48:05.194Z,5.41
2019-01-29T09:50:34.761Z,5.53
2019-01-29T09:53:04.764Z,5.87
2019-01-29T09:55:34.429Z,6.01
2019-01-29T09:58:04.011Z,6.03
2019-01-29T10:00:37.923Z,6.05
2019-01-29T10:03:08.517Z,6.07
2019-01-29T10:05:38.590Z,6.01
2019-01-29T10:08:08.226Z,5.71
2019-01-29T10:10:37.850Z,5.91
2019-01-29T10:13:07.537Z,6.14
2019-01-29T10:15:39.052Z,6.13
2019-01-29T10:18:08.817Z,6.21
2019-01-29T10:20:38.627Z,6.24
2019-01-29T10:23:08.152Z,6.10
2019-01-29T10:25:38.274Z,6.06
2019-01-29T10:28:08.174Z,5.95
2019-01-29T10:30:37.809Z,5.99
2019-01-29T10:33:07.436Z,6.13
2019-01-29T10:35:37.175Z,6.26
2019-01-29T10:38:06.765Z,6.29
2019-01-29T10:40:36.606Z,6.19
2019-01-29T10:43:08.106Z,6.51
2019-01-29T10:45:37.823Z,6.50
2019-01-29T10:48:07.437Z,6.99
2019-01-29T10:50:37.251Z,7.31
2019-01-29T10:53:07.022Z,7.57
2019-01-29T10:55:36.713Z,7.04
2019-01-29T10:58:07.047Z,7.41
2019-01-29T11:00:40.744Z,8.09
2019-01-29T11:03:11.315Z,7.03
2019-01-29T11:05:41.397Z,7.30
2019-01-29T11:08:11.024Z,8.66
2019-01-29T11:10:40.717Z,8.11
2019-01-29T11:13:10.319Z,7.82
2019-01-29T11:15:42.064Z,8.25
2019-01-29T11:18:14.711Z,8.38
2019-01-29T11:20:44.877Z,8.10
2019-01-29T11:23:14.529Z,7.49
2019-01-29T11:25:44.261Z,7.28
2019-01-29T11:28:14.008Z,6.73
2019-01-29T11:30:44.567Z,7.04
2019-01-29T11:33:14.101Z,8.74
2019-01-29T11:35:43.735Z,10.80
2019-01-29T11:38:13.775Z,10.18
2019-01-29T11:40:43.589Z,9.10
2019-01-29T11:43:13.121Z,13.18
2019-01-29T11:45:49.278Z,13.33
2019-01-29T11:48:18.864Z,10.73
2019-01-29T11:50:48.505Z,9.39
2019-01-29T11:53:18.068Z,9.74
2019-01-29T11:55:47.635Z,10.39
2019-01-29T11:58:17.172Z,10.31
2019-01-29T12:00:51.627Z,10.15
2019-01-29T12:03:21.217Z,8.90
2019-01-29T12:05:50.784Z,8.83
2019-01-29T12:08:21.066Z,9.28
2019-01-29T12:10:50.623Z,9.88
2019-01-29T12:13:20.151Z,9.78
2019-01-29T12:15:49.858Z,9.41
2019-01-29T12:18:19.488Z,8.54
2019-01-29T12:20:49.066Z,7.52
2019-01-29T12:23:19.445Z,8.08
2019-01-29T12:25:49.160Z,8.16
2019-01-29T12:28:18.673Z,8.93
2019-01-29T12:30:48.414Z,8.80
2019-01-29T12:33:18.651Z,9.43
2019-01-29T12:35:48.176Z,10.26
2019-01-29T12:38:17.852Z,9.60
2019-01-29T12:40:47.487Z,9.52
2019-01-29T12:43:17.060Z,9.59
2019-01-29T12:45:48.174Z,10.10
2019-01-29T12:48:18.018Z,10.66
2019-01-29T12:50:49.267Z,10.11
2019-01-29T12:53:19.791Z,8.77
2019-01-29T12:55:49.300Z,8.01
2019-01-29T12:58:18.862Z,8.42
2019-01-29T13:00:50.278Z,8.47
2019-01-29T13:03:19.768Z,7.70
2019-01-29T13:05:49.287Z,7.89
2019-01-29T13:08:19.070Z,7.78
2019-01-29T13:10:48.656Z,7.69
2019-01-29T13:13:18.230Z,7.60
2019-01-29T13:15:47.997Z,7.34
2019-01-29T13:18:17.495Z,7.22
2019-01-29T13:20:46.994Z,7.13
2019-01-29T13:23:17.028Z,6.93
2019-01-29T13:25:46.547Z,6.43
2019-01-29T13:28:18.489Z,6.17
2019-01-29T13:30:48.107Z,6.26
2019-01-29T13:33:18.304Z,6.18
2019-01-29T13:35:48.002Z,6.39
2019-01-29T13:38:18.160Z,6.69
2019-01-29T13:40:47.824Z,6.30
2019-01-29T13:43:17.636Z,6.34
2019-01-29T13:45:47.500Z,5.92
2019-01-29T13:48:17.616Z,5.92
2019-01-29T13:50:53.271Z,5.94
2019-01-29T13:53:22.785Z,5.86
2019-01-29T13:55:52.356Z,6.10
2019-01-29T13:58:25.326Z,6.22
2019-01-29T14:00:55.454Z,6.15
2019-01-29T14:03:24.987Z,6.20
2019-01-29T14:05:54.597Z,6.52
2019-01-29T14:08:24.117Z,6.18
2019-01-29T14:10:53.669Z,6.31
2019-01-29T14:13:23.705Z,5.89
2019-01-29T14:15:54.178Z,5.91
2019-01-29T14:18:23.736Z,6.19
2019-01-29T14:20:53.415Z,6.22
2019-01-29T14:23:22.913Z,6.09
2019-01-29T14:25:52.562Z,6.30
2019-01-29T14:28:22.184Z,6.35
2019-01-29T14:30:51.807Z,6.20
2019-01-29T14:33:21.390Z,5.54
2019-01-29T14:35:51.153Z,6.01
2019-01-29T14:38:30.870Z,5.48
2019-01-29T14:41:00.827Z,5.81
2019-01-29T14:43:40.814Z,5.63
2019-01-29T14:46:10.430Z,5.69
2019-01-29T14:48:39.942Z,5.70
2019-01-29T14:51:09.665Z,5.39
2019-01-29T14:53:39.271Z,5.79
2019-01-29T14:56:09.311Z,5.51
2019-01-29T14:58:38.927Z,5.45
2019-01-29T15:01:09.382Z,5.83
2019-01-29T15:03:38.975Z,5.94
2019-01-29T15:06:08.541Z,5.99
2019-01-29T15:08:38.299Z,5.92
2019-01-29T15:11:07.881Z,5.94
2019-01-29T15:13:37.506Z,6.13
2019-01-29T15:16:09.247Z,5.74
2019-01-29T15:18:52.320Z,5.87
2019-01-29T15:21:22.230Z,5.87
2019-01-29T15:23:51.756Z,5.94
2019-01-29T15:26:21.267Z,6.10
2019-01-29T15:28:50.786Z,5.50
2019-01-29T15:31:20.299Z,5.41
2019-01-29T15:33:49.843Z,5.26
2019-01-29T15:36:19.390Z,5.31
2019-01-29T15:38:48.878Z,5.44
2019-01-29T15:41:18.461Z,5.57
2019-01-29T15:43:48.339Z,5.65
2019-01-29T15:46:17.932Z,5.53
2019-01-29T15:48:47.433Z,5.32
2019-01-29T15:51:17.036Z,5.37
2019-01-29T15:53:46.559Z,5.46
2019-01-29T15:56:16.036Z,5.39
2019-01-29T15:58:45.575Z,5.44
2019-01-29T16:01:15.169Z,5.18
2019-01-29T16:03:44.670Z,5.21
2019-01-29T16:06:14.735Z,5.18
2019-01-29T16:08:44.705Z,4.91
2019-01-29T16:11:14.227Z,5.11
2019-01-29T16:13:43.801Z,5.13
2019-01-29T16:16:13.306Z,4.89
2019-01-29T16:18:42.817Z,4.63
2019-01-29T16:21:12.418Z,4.81
2019-01-29T16:23:41.977Z,4.70
2019-01-29T16:26:11.700Z,4.71
2019-01-29T16:28:41.616Z,4.67
2019-01-29T16:31:11.285Z,4.77
2019-01-29T16:33:40.888Z,4.55
2019-01-29T16:36:10.787Z,4.48
2019-01-29T16:38:40.349Z,4.46
2019-01-29T16:41:09.925Z,4.52
2019-01-29T16:43:39.461Z,4.59
2019-01-29T16:46:09.025Z,4.73
2019-01-29T16:48:38.540Z,4.56
2019-01-29T16:51:08.535Z,4.39
2019-01-29T16:53:38.049Z,4.16
2019-01-29T16:56:07.696Z,4.07
2019-01-29T16:58:37.297Z,4.19
2019-01-29T17:01:07.867Z,3.94
2019-01-29T17:03:37.386Z,3.92
2019-01-29T17:06:07.172Z,3.89
2019-01-29T17:08:36.737Z,4.05
2019-01-29T17:11:06.819Z,3.93
2019-01-29T17:13:36.923Z,3.72
2019-01-29T17:16:06.493Z,3.66
2019-01-29T17:18:36.022Z,3.46
2019-01-29T17:21:06.428Z,3.52
2019-01-29T17:23:36.016Z,3.40
2019-01-29T17:26:05.565Z,3.30
2019-01-29T17:28:35.175Z,3.40
2019-01-29T17:31:04.677Z,3.35
2019-01-29T17:33:34.256Z,3.42
2019-01-29T17:36:04.157Z,3.51
2019-01-29T17:38:33.669Z,3.37
2019-01-29T17:41:03.484Z,3.49
2019-01-29T17:43:33.143Z,3.64
2019-01-29T17:46:02.788Z,3.36
2019-01-29T17:48:32.315Z,3.48
2019-01-29T17:51:01.847Z,3.48
2019-01-29T17:53:31.682Z,3.59
2019-01-29T17:56:01.263Z,3.56
2019-01-29T17:58:30.861Z,3.62
2019-01-29T18:01:00.600Z,3.68
2019-01-29T18:03:30.469Z,3.60
2019-01-29T18:06:00.165Z,3.53
2019-01-29T18:08:29.671Z,3.55
2019-01-29T18:10:59.379Z,3.52
2019-01-29T18:13:28.984Z,3.54
2019-01-29T18:15:58.716Z,3.58
2019-01-29T18:18:28.364Z,3.48
2019-01-29T18:20:58.076Z,3.50
2019-01-29T18:23:27.648Z,3.29
2019-01-29T18:25:57.330Z,3.39
2019-01-29T18:28:26.972Z,3.46
2019-01-29T18:30:56.559Z,3.36
2019-01-29T18:33:26.199Z,3.29
2019-01-29T18:35:55.805Z,3.23
2019-01-29T18:38:25.297Z,3.16
2019-01-29T18:40:54.866Z,3.12
2019-01-29T18:43:24.587Z,3.14
2019-01-29T18:45:54.266Z,3.09
2019-01-29T18:48:23.753Z,3.18
2019-01-29T18:50:53.306Z,3.22
2019-01-29T18:53:23.275Z,2.96
2019-01-29T18:55:52.837Z,2.78
2019-01-29T18:58:22.400Z,2.87
2019-01-29T19:00:54.605Z,2.98
2019-01-29T19:03:23.381Z,3.00
2019-01-29T19:05:53.290Z,2.85
2019-01-29T19:08:22.961Z,2.87
2019-01-29T19:10:52.572Z,3.04
2019-01-29T19:13:22.118Z,2.99
2019-01-29T19:15:51.626Z,3.06
2019-01-29T19:18:21.187Z,2.95
2019-01-29T19:20:53.308Z,2.64
2019-01-29T19:23:22.906Z,2.57
2019-01-29T19:25:52.599Z,2.59
2019-01-29T19:28:23.636Z,2.58
2019-01-29T19:30:53.215Z,2.62
2019-01-29T19:33:25.628Z,2.76
2019-01-29T19:35:55.182Z,2.81
2019-01-29T19:38:24.854Z,2.82
2019-01-29T19:40:54.430Z,2.95
2019-01-29T19:43:24.136Z,3.03
2019-01-29T19:45:53.679Z,3.08
2019-01-29T19:48:23.211Z,3.12
2019-01-29T19:50:52.964Z,2.98
2019-01-29T19:53:22.557Z,3.03
2019-01-29T19:55:52.471Z,2.96
2019-01-29T19:58:31.793Z,3.08
2019-01-29T20:00:53.910Z,3.00
2019-01-29T20:03:24.323Z,3.00
2019-01-29T20:05:57.244Z,2.87
2019-01-29T20:08:27.504Z,2.77
2019-01-29T20:10:57.895Z,2.56
2019-01-29T20:13:27.842Z,2.60
2019-01-29T20:15:58.020Z,2.71
2019-01-29T20:18:27.816Z,2.52
2019-01-29T20:20:58.654Z,2.32
2019-01-29T20:23:28.527Z,2.18
2019-01-29T20:25:58.614Z,2.35
2019-01-29T20:28:28.693Z,2.34
2019-01-29T20:31:00.097Z,2.33
2019-01-29T20:33:30.168Z,2.35
2019-01-29T20:35:59.924Z,2.39
2019-01-29T20:38:35.171Z,2.30
2019-01-29T20:41:01.199Z,2.42
2019-01-29T20:43:31.325Z,2.52
2019-01-29T20:46:01.207Z,2.68
2019-01-29T20:48:30.738Z,2.63
2019-01-29T20:51:00.296Z,2.75
2019-01-29T20:53:29.863Z,2.62
2019-01-29T20:55:59.362Z,2.61
2019-01-29T20:58:29.380Z,2.53
2019-01-29T21:00:58.962Z,2.67
2019-01-29T21:03:28.603Z,2.63
2019-01-29T21:05:58.712Z,2.65
2019-01-29T21:08:28.679Z,2.52
2019-01-29T21:10:58.246Z,2.56
2019-01-29T21:13:28.214Z,2.45
2019-01-29T21:15:58.182Z,2.29
2019-01-29T21:18:27.909Z,2.19
2019-01-29T21:20:57.520Z,2.23
2019-01-29T21:23:27.149Z,2.44
2019-01-29T21:25:56.715Z,2.53
2019-01-29T21:28:27.512Z,2.48
2019-01-29T21:30:57.258Z,2.54
2019-01-29T21:33:26.875Z,2.42
2019-01-29T21:35:56.383Z,2.50
2019-01-29T21:38:25.979Z,2.46
2019-01-29T21:40:55.542Z,2.52
2019-01-29T21:43:25.098Z,2.64
2019-01-29T21:45:54.756Z,2.58
2019-01-29T21:48:24.266Z,2.60
2019-01-29T21:50:54.257Z,2.54
2019-01-29T21:53:23.851Z,2.64
2019-01-29T21:55:53.473Z,2.77
2019-01-29T21:58:23.110Z,2.68
2019-01-29T22:00:52.705Z,2.53
2019-01-29T22:03:22.357Z,2.56
2019-01-29T22:05:52.271Z,2.45
2019-01-29T22:08:21.912Z,2.55
2019-01-29T22:10:51.421Z,2.63
2019-01-29T22:13:23.134Z,2.63
2019-01-29T22:15:52.717Z,2.72
2019-01-29T22:18:22.254Z,2.67
2019-01-29T22:20:51.777Z,2.66
2019-01-29T22:23:21.691Z,2.64
2019-01-29T22:25:51.273Z,2.67
2019-01-29T22:28:20.989Z,2.54
2019-01-29T22:30:50.571Z,2.60
2019-01-29T22:33:20.637Z,2.73
2019-01-29T22:35:50.487Z,2.69
2019-01-29T22:38:19.993Z,2.67
2019-01-29T22:40:49.495Z,2.70
2019-01-29T22:43:19.036Z,2.67
2019-01-29T22:45:48.551Z,2.76
2019-01-29T22:48:18.045Z,2.78
2019-01-29T22:50:47.600Z,2.59
2019-01-29T22:53:17.594Z,2.64
2019-01-29T22:55:47.103Z,2.65
2019-01-29T22:58:16.706Z,2.43
2019-01-29T23:00:58.012Z,2.35
2019-01-29T23:03:35.251Z,2.37
2019-01-29T23:06:39.599Z,2.17
2019-01-29T23:09:10.704Z,2.12
2019-01-29T23:11:40.798Z,2.02
2019-01-29T23:14:10.827Z,2.16
2019-01-29T23:16:42.618Z,2.28
2019-01-29T23:19:12.177Z,2.19
2019-01-29T23:21:41.763Z,2.11
2019-01-29T23:24:11.484Z,2.08
2019-01-29T23:26:41.109Z,2.02
2019-01-29T23:29:10.829Z,2.04
2019-01-29T23:31:40.371Z,1.88
2019-01-29T23:34:09.963Z,2.06
2019-01-29T23:36:39.454Z,2.03
2019-01-29T23:39:09.566Z,1.96
2019-01-29T23:41:39.136Z,2.18
2019-01-29T23:44:09.236Z,2.33
2019-01-29T23:46:38.935Z,2.23
2019-01-29T23:49:08.811Z,2.26
2019-01-29T23:51:38.580Z,2.27
2019-01-29T23:54:08.563Z,2.17
2019-01-29T23:56:38.512Z,2.11
2019-01-29T23:59:08.759Z,2.05
